createdAt,value
2022-12-14T00:02:27.032Z,14.13
2022-12-14T00:04:59.531Z,18.43
2022-12-14T00:07:29.442Z,12.57
2022-12-14T00:09:59.426Z,12.93
2022-12-14T00:12:29.318Z,16.73
2022-12-14T00:14:59.855Z,11.70
2022-12-14T00:17:29.916Z,12.97
2022-12-14T00:20:02.480Z,11.70
2022-12-14T00:22:32.371Z,14.03
2022-12-14T00:25:02.550Z,11.63
2022-12-14T00:27:32.447Z,10.73
2022-12-14T00:30:02.300Z,14.07
2022-12-14T00:32:32.179Z,24.27
2022-12-14T00:35:04.615Z,8.20
2022-12-14T00:37:34.594Z,8.97
2022-12-14T00:40:04.518Z,9.80
2022-12-14T00:42:34.449Z,12.83
2022-12-14T00:45:05.163Z,19.93
2022-12-14T00:47:40.478Z,12.27
2022-12-14T00:50:13.643Z,12.53
2022-12-14T00:52:43.520Z,15.67
2022-12-14T00:55:13.457Z,16.77
2022-12-14T00:57:43.257Z,10.40
2022-12-14T01:00:14.773Z,14.30
2022-12-14T01:02:44.715Z,8.60
2022-12-14T01:05:17.822Z,9.90
2022-12-14T01:07:48.710Z,12.87
2022-12-14T01:10:19.160Z,11.67
2022-12-14T01:12:49.107Z,12.67
2022-12-14T01:15:19.200Z,8.53
2022-12-14T01:17:49.093Z,8.87
2022-12-14T01:20:22.188Z,11.73
2022-12-14T01:22:56.935Z,9.87
2022-12-14T01:25:26.920Z,8.40
2022-12-14T01:27:56.802Z,6.03
2022-12-14T01:30:26.600Z,7.93
2022-12-14T01:32:56.501Z,7.67
2022-12-14T01:35:28.995Z,8.40
2022-12-14T01:37:58.932Z,9.83
2022-12-14T01:40:28.770Z,6.97
2022-12-14T01:42:58.640Z,7.23
2022-12-14T01:45:28.564Z,7.83
2022-12-14T01:48:01.238Z,5.43
2022-12-14T01:50:37.110Z,7.07
2022-12-14T01:53:09.314Z,5.97
2022-12-14T01:55:41.540Z,3.43
2022-12-14T01:58:15.603Z,5.33
2022-12-14T02:00:45.600Z,12.57
2022-12-14T02:03:18.328Z,11.20
2022-12-14T02:05:53.530Z,8.40
2022-12-14T02:08:24.222Z,14.63
2022-12-14T02:10:55.224Z,7.70
2022-12-14T02:13:28.668Z,7.43
2022-12-14T02:15:58.856Z,3.10
2022-12-14T02:18:30.448Z,2.97
2022-12-14T02:21:20.242Z,5.50
2022-12-14T02:24:22.372Z,11.17
2022-12-14T02:27:02.963Z,10.73
2022-12-14T02:29:45.971Z,12.50
2022-12-14T02:32:32.824Z,9.90
2022-12-14T02:35:07.432Z,10.37
2022-12-14T02:37:47.301Z,14.80
2022-12-14T02:40:25.185Z,8.67
2022-12-14T02:43:02.799Z,6.30
2022-12-14T02:45:40.107Z,5.10
2022-12-14T02:48:12.401Z,6.03
2022-12-14T02:50:46.198Z,7.80
2022-12-14T02:53:21.039Z,9.40
2022-12-14T02:55:53.409Z,7.60
2022-12-14T02:58:27.218Z,7.03
2022-12-14T03:01:00.077Z,9.90
2022-12-14T03:03:31.233Z,8.67
2022-12-14T03:06:02.830Z,7.17
2022-12-14T03:08:34.976Z,6.30
2022-12-14T03:11:07.092Z,5.53
2022-12-14T03:13:39.681Z,9.93
2022-12-14T03:16:14.744Z,7.87
2022-12-14T03:18:47.433Z,4.70
2022-12-14T03:21:19.850Z,3.07
2022-12-14T03:23:50.956Z,8.17
2022-12-14T03:26:26.077Z,7.33
2022-12-14T03:28:58.360Z,4.67
2022-12-14T03:31:34.710Z,5.87
2022-12-14T03:34:06.867Z,3.80
2022-12-14T03:36:45.977Z,3.95
2022-12-14T03:39:20.548Z,1.83
2022-12-14T03:41:54.257Z,4.47
2022-12-14T03:44:29.396Z,2.00
2022-12-14T03:47:07.216Z,3.60
2022-12-14T03:49:49.192Z,2.07
2022-12-14T03:52:26.351Z,21.37
2022-12-14T03:55:03.573Z,20.63
2022-12-14T03:57:44.989Z,15.93
2022-12-14T04:00:17.529Z,12.20
2022-12-14T04:02:53.450Z,16.13
2022-12-14T04:05:27.863Z,18.33
2022-12-14T04:08:05.791Z,15.93
2022-12-14T04:10:53.180Z,19.53
2022-12-14T04:13:38.561Z,13.60
2022-12-14T04:16:24.704Z,10.20
2022-12-14T04:19:01.033Z,9.63
2022-12-14T04:21:37.367Z,9.93
2022-12-14T04:24:23.579Z,6.77
2022-12-14T04:26:56.397Z,7.67
2022-12-14T04:29:50.006Z,6.57
2022-12-14T04:32:23.400Z,6.83
2022-12-14T04:34:59.182Z,9.90
2022-12-14T04:37:30.018Z,8.70
2022-12-14T04:40:01.999Z,9.93
2022-12-14T04:42:33.795Z,11.00
2022-12-14T04:45:06.901Z,12.93
2022-12-14T04:47:40.182Z,9.73
2022-12-14T04:50:17.389Z,9.30
2022-12-14T04:52:48.680Z,14.13
2022-12-14T04:55:23.215Z,12.87
2022-12-14T04:57:56.147Z,11.77
2022-12-14T05:00:27.559Z,7.70
2022-12-14T05:03:12.094Z,13.47
2022-12-14T05:05:51.201Z,12.53
2022-12-14T05:08:25.967Z,11.45
2022-12-14T05:11:21.894Z,13.57
2022-12-14T05:13:51.702Z,10.27
2022-12-14T05:16:23.291Z,11.83
2022-12-14T05:18:53.761Z,13.43
2022-12-14T05:21:38.603Z,8.67
2022-12-14T05:24:09.295Z,11.70
2022-12-14T05:26:39.145Z,17.43
2022-12-14T05:29:08.943Z,11.17
2022-12-14T05:31:38.844Z,10.40
2022-12-14T05:34:08.675Z,10.83
2022-12-14T05:36:41.304Z,11.10
2022-12-14T05:39:11.157Z,11.57
2022-12-14T05:41:40.978Z,12.40
2022-12-14T05:44:11.064Z,10.40
2022-12-14T05:46:40.984Z,10.07
2022-12-14T05:49:11.011Z,11.70
2022-12-14T05:51:43.520Z,10.70
2022-12-14T05:54:13.453Z,11.83
2022-12-14T05:56:43.321Z,14.27
2022-12-14T05:59:15.956Z,14.13
2022-12-14T06:01:48.990Z,19.40
2022-12-14T06:04:21.545Z,13.83
2022-12-14T06:06:54.059Z,18.07
2022-12-14T06:09:23.962Z,17.10
2022-12-14T06:11:53.771Z,15.13
2022-12-14T06:14:24.508Z,17.27
2022-12-14T06:16:54.369Z,15.30
2022-12-14T06:19:24.487Z,10.17
2022-12-14T06:21:56.974Z,15.57
2022-12-14T06:24:26.915Z,16.60
2022-12-14T06:26:56.748Z,19.20
2022-12-14T06:29:26.672Z,13.90
2022-12-14T06:31:56.466Z,15.53
2022-12-14T06:34:28.688Z,14.63
2022-12-14T06:37:01.378Z,13.33
2022-12-14T06:39:31.716Z,14.80
2022-12-14T06:42:01.584Z,15.53
2022-12-14T06:44:31.417Z,14.90
2022-12-14T06:47:01.408Z,17.13
2022-12-14T06:49:31.330Z,13.63
2022-12-14T06:52:03.793Z,9.93
2022-12-14T06:54:33.847Z,12.53
2022-12-14T06:57:03.707Z,10.20
2022-12-14T06:59:33.550Z,10.60
2022-12-14T07:02:03.590Z,12.93
2022-12-14T07:04:33.797Z,16.87
2022-12-14T07:07:06.433Z,11.10
2022-12-14T07:09:36.359Z,10.03
2022-12-14T07:12:06.589Z,12.20
2022-12-14T07:14:36.715Z,13.17
2022-12-14T07:17:06.636Z,8.17
2022-12-14T07:19:36.750Z,11.43
2022-12-14T07:22:09.176Z,14.47
2022-12-14T07:24:39.135Z,19.03
2022-12-14T07:27:09.561Z,18.07
2022-12-14T07:29:39.505Z,17.27
2022-12-14T07:32:09.384Z,24.17
2022-12-14T07:34:39.240Z,20.33
2022-12-14T07:37:11.763Z,16.73
2022-12-14T07:39:41.886Z,25.80
2022-12-14T07:42:13.077Z,17.80
2022-12-14T07:44:49.968Z,21.17
2022-12-14T07:47:19.903Z,21.00
2022-12-14T07:49:49.736Z,22.00
2022-12-14T07:52:22.302Z,32.43
2022-12-14T07:54:52.270Z,26.07
2022-12-14T07:57:22.176Z,18.77
2022-12-14T07:59:57.292Z,17.57
2022-12-14T08:02:27.641Z,16.80
2022-12-14T08:04:57.711Z,19.37
2022-12-14T08:07:31.631Z,14.57
2022-12-14T08:10:01.571Z,9.43
2022-12-14T08:12:31.461Z,14.10
2022-12-14T08:15:01.319Z,11.40
2022-12-14T08:17:31.215Z,15.97
2022-12-14T08:20:01.062Z,25.73
2022-12-14T08:22:33.503Z,17.47
2022-12-14T08:25:03.467Z,28.00
2022-12-14T08:27:33.404Z,10.80
2022-12-14T08:30:03.263Z,9.60
2022-12-14T08:32:34.553Z,9.30
2022-12-14T08:35:04.747Z,6.90
2022-12-14T08:37:37.293Z,11.03
2022-12-14T08:40:08.867Z,16.77
2022-12-14T08:42:38.787Z,20.97
2022-12-14T08:45:09.762Z,14.07
2022-12-14T08:47:39.661Z,16.53
2022-12-14T08:50:11.115Z,29.73
2022-12-14T08:52:43.563Z,18.80
2022-12-14T08:55:13.492Z,14.03
2022-12-14T08:57:43.275Z,8.47
2022-12-14T09:00:14.842Z,11.20
2022-12-14T09:02:45.053Z,12.23
2022-12-14T09:05:19.928Z,12.77
2022-12-14T09:07:52.387Z,21.50
2022-12-14T09:10:22.258Z,15.73
2022-12-14T09:12:52.236Z,12.80
2022-12-14T09:15:22.192Z,12.67
2022-12-14T09:17:52.220Z,27.23
2022-12-14T09:20:22.230Z,17.03
2022-12-14T09:22:56.771Z,20.37
2022-12-14T09:25:26.754Z,20.40
2022-12-14T09:27:56.947Z,17.33
2022-12-14T09:30:27.285Z,12.37
2022-12-14T09:32:57.987Z,15.30
2022-12-14T09:35:30.824Z,9.90
2022-12-14T09:38:03.499Z,8.97
2022-12-14T09:40:34.616Z,9.47
2022-12-14T09:43:08.165Z,14.63
2022-12-14T09:45:44.869Z,25.40
2022-12-14T09:48:19.723Z,19.20
2022-12-14T09:50:50.619Z,15.20
2022-12-14T09:53:24.944Z,13.03
2022-12-14T09:55:57.067Z,13.97
2022-12-14T09:58:29.256Z,14.27
2022-12-14T10:01:04.281Z,18.03
2022-12-14T10:03:45.014Z,19.40
2022-12-14T10:06:35.725Z,15.03
2022-12-14T10:09:16.621Z,15.80
2022-12-14T10:11:53.421Z,13.10
2022-12-14T10:14:29.121Z,11.07
2022-12-14T10:17:06.099Z,12.97
2022-12-14T10:19:42.029Z,14.83
2022-12-14T10:22:15.192Z,18.60
2022-12-14T10:24:50.346Z,16.70
2022-12-14T10:27:25.231Z,19.80
2022-12-14T10:30:01.213Z,17.80
2022-12-14T10:32:36.304Z,14.30
2022-12-14T10:35:16.200Z,22.07
2022-12-14T10:37:48.210Z,15.07
2022-12-14T10:40:33.477Z,17.00
2022-12-14T10:43:13.996Z,19.23
2022-12-14T10:45:47.287Z,11.67
2022-12-14T10:48:31.322Z,10.57
2022-12-14T10:51:04.996Z,14.30
2022-12-14T10:53:44.162Z,12.60
2022-12-14T10:56:21.038Z,12.40
2022-12-14T10:59:21.022Z,11.13
2022-12-14T11:01:52.502Z,12.65
2022-12-14T11:04:31.936Z,11.63
2022-12-14T11:07:04.126Z,13.60
2022-12-14T11:09:34.334Z,13.43
2022-12-14T11:12:10.651Z,13.10
2022-12-14T11:14:41.415Z,11.77
2022-12-14T11:17:33.430Z,7.33
2022-12-14T11:20:13.441Z,10.90
2022-12-14T11:22:47.086Z,14.90
2022-12-14T11:25:33.407Z,13.83
2022-12-14T11:28:18.377Z,10.38
2022-12-14T11:31:00.567Z,13.73
2022-12-14T11:33:36.196Z,15.17
2022-12-14T11:36:06.376Z,15.67
2022-12-14T11:38:36.459Z,16.80
2022-12-14T11:41:11.903Z,17.60
2022-12-14T11:43:44.684Z,13.23
2022-12-14T11:46:15.296Z,10.02
2022-12-14T11:48:51.092Z,11.65
2022-12-14T11:51:21.019Z,13.15
2022-12-14T11:54:04.489Z,12.10
2022-12-14T11:56:34.386Z,17.85
2022-12-14T11:59:07.265Z,22.38
2022-12-14T12:01:37.334Z,19.88
2022-12-14T12:04:07.651Z,15.57
2022-12-14T12:06:37.585Z,30.33
2022-12-14T12:09:28.298Z,23.23
2022-12-14T12:11:58.164Z,18.42
2022-12-14T12:14:35.858Z,10.50
2022-12-14T12:17:20.584Z,12.13
2022-12-14T12:19:52.450Z,10.82
2022-12-14T12:22:23.186Z,14.68
2022-12-14T12:25:24.323Z,13.88
2022-12-14T12:27:51.921Z,14.35
2022-12-14T12:30:28.776Z,60.28
2022-12-14T12:33:04.155Z,93.35
2022-12-14T12:35:38.174Z,27.45
2022-12-14T12:38:12.537Z,25.70
2022-12-14T12:40:54.971Z,14.38
2022-12-14T12:43:28.371Z,13.70
2022-12-14T12:46:02.535Z,14.00
2022-12-14T12:48:36.254Z,14.13
2022-12-14T12:51:10.104Z,20.40
2022-12-14T12:53:44.063Z,18.58
2022-12-14T12:56:17.116Z,17.50
2022-12-14T12:58:52.636Z,23.15
2022-12-14T13:01:31.498Z,87.40
2022-12-14T13:04:04.510Z,17.55
2022-12-14T13:06:40.650Z,17.75
2022-12-14T13:09:14.893Z,17.88
2022-12-14T13:11:45.735Z,13.65
2022-12-14T13:14:33.653Z,13.65
2022-12-14T13:17:07.691Z,13.23
2022-12-14T13:19:51.701Z,13.68
2022-12-14T13:22:28.153Z,12.20
2022-12-14T13:25:00.253Z,7.72
2022-12-14T13:27:42.189Z,9.32
2022-12-14T13:30:25.391Z,7.32
2022-12-14T13:33:19.423Z,7.32
2022-12-14T13:36:16.597Z,9.77
2022-12-14T13:39:03.614Z,11.50
2022-12-14T13:41:37.806Z,8.02
2022-12-14T13:44:37.208Z,10.52
2022-12-14T13:47:16.818Z,8.00
2022-12-14T13:52:47.694Z,9.68
2022-12-14T13:55:29.618Z,8.80
2022-12-14T13:58:10.103Z,9.40
2022-12-14T14:00:58.393Z,11.60
2022-12-14T14:03:59.517Z,12.60
2022-12-14T14:06:42.283Z,7.80
2022-12-14T14:09:42.167Z,11.38
2022-12-14T14:12:43.431Z,58.53
2022-12-14T14:15:34.494Z,21.10
2022-12-14T14:18:17.236Z,16.40
2022-12-14T14:20:51.469Z,13.98
2022-12-14T14:23:38.182Z,15.38
2022-12-14T14:26:24.959Z,49.47
2022-12-14T14:29:17.433Z,22.73
2022-12-14T14:31:52.596Z,16.38
2022-12-14T14:34:26.302Z,11.02
2022-12-14T14:36:56.421Z,11.45
2022-12-14T14:42:27.549Z,14.82
2022-12-14T14:45:00.836Z,9.20
2022-12-14T14:47:34.410Z,11.57
2022-12-14T14:50:06.778Z,13.93
2022-12-14T14:53:00.933Z,10.90
2022-12-14T14:56:07.761Z,14.57
2022-12-14T14:58:39.501Z,9.27
2022-12-14T15:01:27.996Z,10.00
2022-12-14T15:04:04.295Z,10.60
2022-12-14T15:06:36.177Z,11.40
2022-12-14T15:09:11.066Z,12.05
2022-12-14T15:11:50.081Z,9.98
2022-12-14T15:14:35.562Z,12.25
2022-12-14T15:17:16.203Z,9.32
2022-12-14T15:19:50.152Z,13.05
2022-12-14T15:22:22.164Z,16.60
2022-12-14T15:24:54.379Z,18.33
2022-12-14T15:27:30.923Z,16.75
2022-12-14T15:30:06.501Z,11.35
2022-12-14T15:32:36.586Z,10.13
2022-12-14T15:35:09.956Z,10.15
2022-12-14T15:37:44.973Z,21.27
2022-12-14T15:40:22.540Z,16.70
2022-12-14T15:42:56.684Z,19.98
2022-12-14T15:45:28.200Z,28.55
2022-12-14T15:47:58.363Z,11.23
2022-12-14T15:50:32.331Z,9.85
2022-12-14T15:53:10.704Z,25.73
2022-12-14T15:55:43.546Z,22.85
2022-12-14T15:58:20.282Z,28.70
2022-12-14T16:00:52.673Z,20.45
2022-12-14T16:03:29.821Z,17.98
2022-12-14T16:06:00.218Z,18.85
2022-12-14T16:08:30.722Z,16.23
2022-12-14T16:11:01.760Z,41.95
2022-12-14T16:13:36.362Z,19.85
2022-12-14T16:16:10.384Z,18.45
2022-12-14T16:18:43.131Z,19.75
2022-12-14T16:21:28.748Z,15.27
2022-12-14T16:23:59.399Z,14.63
2022-12-14T16:26:32.048Z,18.33
2022-12-14T16:29:22.965Z,21.92
2022-12-14T16:31:53.023Z,20.48
2022-12-14T16:34:25.116Z,24.45
2022-12-14T16:37:31.056Z,19.58
2022-12-14T16:39:52.661Z,17.15
2022-12-14T16:42:23.692Z,18.17
2022-12-14T16:44:56.607Z,18.02
2022-12-14T16:47:33.717Z,15.23
2022-12-14T16:50:04.013Z,18.08
2022-12-14T16:52:35.520Z,26.45
2022-12-14T16:55:14.873Z,28.70
2022-12-14T17:00:26.537Z,22.00
2022-12-14T17:02:59.083Z,21.98
2022-12-14T17:05:32.359Z,22.63
2022-12-14T17:08:02.376Z,24.75
2022-12-14T17:10:33.410Z,21.63
2022-12-14T17:13:04.419Z,18.77
2022-12-14T17:15:38.244Z,19.90
2022-12-14T17:18:08.465Z,23.13
2022-12-14T17:20:39.459Z,15.32
2022-12-14T17:23:11.819Z,18.30
2022-12-14T17:25:46.153Z,16.13
2022-12-14T17:28:25.148Z,13.05
2022-12-14T17:30:59.197Z,13.45
2022-12-14T17:33:30.622Z,19.25
2022-12-14T17:36:00.806Z,16.50
2022-12-14T17:38:30.825Z,13.63
2022-12-14T17:41:00.835Z,13.93
2022-12-14T17:43:31.237Z,17.83
2022-12-14T17:46:04.249Z,17.13
2022-12-14T17:48:34.301Z,14.95
2022-12-14T17:51:04.920Z,13.25
2022-12-14T17:53:34.869Z,15.25
2022-12-14T17:56:04.848Z,14.27
2022-12-14T17:58:34.868Z,12.90
2022-12-14T18:01:07.836Z,14.57
2022-12-14T18:03:39.454Z,16.13
2022-12-14T18:06:09.484Z,16.80
2022-12-14T18:08:39.413Z,12.80
2022-12-14T18:11:13.658Z,16.08
2022-12-14T18:13:44.528Z,14.43
2022-12-14T18:16:19.565Z,15.18
2022-12-14T18:18:49.872Z,16.27
2022-12-14T18:21:21.865Z,15.02
2022-12-14T18:23:52.623Z,17.75
2022-12-14T18:26:24.242Z,14.38
2022-12-14T18:28:56.399Z,13.07
2022-12-14T18:31:31.162Z,17.20
2022-12-14T18:34:01.297Z,12.05
2022-12-14T18:36:31.779Z,14.68
2022-12-14T18:39:01.739Z,15.80
2022-12-14T18:41:31.863Z,15.10
2022-12-14T18:44:02.014Z,12.15
2022-12-14T18:46:35.147Z,12.48
2022-12-14T18:49:05.145Z,10.45
2022-12-14T18:51:35.139Z,15.25
2022-12-14T18:54:05.199Z,16.42
2022-12-14T18:56:35.184Z,20.30
2022-12-14T18:59:05.168Z,19.67
2022-12-14T19:01:37.869Z,17.42
2022-12-14T19:04:08.116Z,17.77
2022-12-14T19:06:44.573Z,17.27
2022-12-14T19:09:15.889Z,15.13
2022-12-14T19:11:46.407Z,15.48
2022-12-14T19:14:16.469Z,14.82
2022-12-14T19:16:49.054Z,17.40
2022-12-14T19:19:23.097Z,14.68
2022-12-14T19:21:54.283Z,14.65
2022-12-14T19:24:24.264Z,72.60
2022-12-14T19:26:54.233Z,57.72
2022-12-14T19:29:24.231Z,38.95
2022-12-14T19:32:00.416Z,33.00
2022-12-14T19:34:35.078Z,25.85
2022-12-14T19:37:05.077Z,23.23
2022-12-14T19:39:35.016Z,23.67
2022-12-14T19:42:05.184Z,23.48
2022-12-14T19:44:36.327Z,24.45
2022-12-14T19:47:09.000Z,20.33
2022-12-14T19:49:39.074Z,24.77
2022-12-14T19:52:09.592Z,26.50
2022-12-14T19:54:40.146Z,27.70
2022-12-14T19:57:10.320Z,26.33
2022-12-14T19:59:40.263Z,33.78
2022-12-14T20:02:14.431Z,43.25
2022-12-14T20:04:44.537Z,35.47
2022-12-14T20:07:14.570Z,29.45
2022-12-14T20:09:44.514Z,27.25
2022-12-14T20:12:14.494Z,27.80
2022-12-14T20:14:44.562Z,32.15
2022-12-14T20:17:22.023Z,25.20
2022-12-14T20:19:51.981Z,29.38
2022-12-14T20:22:21.951Z,21.73
2022-12-14T20:24:51.847Z,31.77
2022-12-14T20:27:21.814Z,29.10
2022-12-14T20:29:51.967Z,29.15
2022-12-14T20:32:24.583Z,32.30
2022-12-14T20:34:54.596Z,30.73
2022-12-14T20:37:24.579Z,28.00
2022-12-14T20:39:54.557Z,26.77
2022-12-14T20:42:24.446Z,28.85
2022-12-14T20:44:54.434Z,32.33
2022-12-14T20:47:26.906Z,27.80
2022-12-14T20:49:56.840Z,29.08
2022-12-14T20:52:26.629Z,32.25
2022-12-14T20:54:56.509Z,30.95
2022-12-14T20:57:26.620Z,30.88
2022-12-14T20:59:59.279Z,28.58
2022-12-14T21:02:32.045Z,26.27
2022-12-14T21:05:02.121Z,29.85
2022-12-14T21:07:33.777Z,22.92
2022-12-14T21:10:03.763Z,24.00
2022-12-14T21:12:33.563Z,20.17
2022-12-14T21:15:03.537Z,16.17
2022-12-14T21:17:36.515Z,13.75
2022-12-14T21:20:07.102Z,14.20
2022-12-14T21:22:37.359Z,13.55
2022-12-14T21:25:08.089Z,15.45
2022-12-14T21:27:39.218Z,13.75
2022-12-14T21:30:11.541Z,14.25
2022-12-14T21:32:44.033Z,13.20
2022-12-14T21:35:17.687Z,20.45
2022-12-14T21:37:47.743Z,22.50
2022-12-14T21:40:37.693Z,20.98
2022-12-14T21:43:05.181Z,29.88
2022-12-14T21:45:35.022Z,45.92
2022-12-14T21:48:07.772Z,32.08
2022-12-14T21:50:37.687Z,18.45
2022-12-14T21:53:07.523Z,26.10
2022-12-14T21:55:37.485Z,33.38
2022-12-14T21:58:16.986Z,70.90
2022-12-14T22:00:47.059Z,37.63
2022-12-14T22:03:19.694Z,33.63
2022-12-14T22:05:49.548Z,33.97
2022-12-14T22:08:19.573Z,30.45
2022-12-14T22:10:49.443Z,39.65
2022-12-14T22:13:19.323Z,33.10
2022-12-14T22:15:49.427Z,34.78
2022-12-14T22:18:22.172Z,91.00
2022-12-14T22:20:52.174Z,40.22
2022-12-14T22:23:21.922Z,33.40
2022-12-14T22:25:52.701Z,32.28
2022-12-14T22:28:22.739Z,30.88
2022-12-14T22:30:52.866Z,27.98
2022-12-14T22:33:25.617Z,29.95
2022-12-14T22:35:55.568Z,32.47
2022-12-14T22:38:25.401Z,32.72
2022-12-14T22:40:55.496Z,22.73
2022-12-14T22:43:29.777Z,20.55
2022-12-14T22:46:03.250Z,27.02
2022-12-14T22:48:39.405Z,19.27
2022-12-14T22:51:11.824Z,22.02
2022-12-14T22:53:42.098Z,23.23
2022-12-14T22:56:16.289Z,24.60
2022-12-14T22:58:50.008Z,27.52
2022-12-14T23:01:20.192Z,24.83
2022-12-14T23:03:54.246Z,23.45
2022-12-14T23:06:24.586Z,21.00
2022-12-14T23:09:06.921Z,18.20
2022-12-14T23:11:49.614Z,16.58
2022-12-14T23:14:32.020Z,19.75
2022-12-14T23:17:14.867Z,15.15
2022-12-14T23:20:04.621Z,15.55
2022-12-14T23:22:49.696Z,24.25
2022-12-14T23:25:32.313Z,27.15
2022-12-14T23:28:14.627Z,21.77
2022-12-14T23:30:56.988Z,21.45
2022-12-14T23:33:39.317Z,20.83
2022-12-14T23:36:24.591Z,23.00
2022-12-14T23:39:06.901Z,24.52
2022-12-14T23:41:49.221Z,14.63
2022-12-14T23:44:31.502Z,17.67
2022-12-14T23:47:13.783Z,20.25
2022-12-14T23:49:56.051Z,17.58
2022-12-14T23:52:40.931Z,16.45
2022-12-14T23:55:24.270Z,19.15
2022-12-14T23:58:06.552Z,16.90
